Philip M Pfeffer (pmp) — WDB8705 — position and weather

sailwx.info

Track history (hours):
 
Tides and Currents Weather Stations Pressure Air Temp Water Temp Dewpoint Dewpoint Depression Visibility Wind Speed Wind Dir Waves Ship Positions

Philip M Pfeffer (pmp)

Owner: Ingram Barge Company LLC, Nashville, TN. More information available from US FCC via Universal Licensing System and Coast Guard Vessel Documentation Center.

Last reported at 2018-May-07 21:25 UTC. Time now 2018-Jun-22 15:04 UTC.
Position N 39°09' W 090°43'.
Warning: this ship's position is 45 days out of date.

Length 39 m; draft 2.7 m.

Type: Ship (hazmat cat B). MMSI: 366963070.

Date/timePositionNaut miles runAvg speedWind from/ knotsBaromVisibWave heightAir tempDewpointWater temp
2018-May-07 21:25N 39°09' W 090°43'2 5.1
2018-May-07 20:56N 39°07' W 090°41'3 4.2
2018-May-07 20:16N 39°04' W 090°42'1 5.2
2018-May-07 20:00N 39°03' W 090°43'3 5.2
2018-May-07 19:30N 39°00' W 090°41'0 0.5
2018-May-07 18:58N 39°00' W 090°41'0 0.0
2018-May-07 18:25N 39°00' W 090°41'1 2.0
2018-May-07 17:59N 38°59' W 090°41'2 0.8
2018-May-07 15:49N 38°58' W 090°40'0 0.0
2018-May-07 15:27N 38°58' W 090°40'0 0.0
2018-May-07 15:00N 38°58' W 090°40'0 0.0
2018-May-07 14:30N 38°58' W 090°40'0 0.0
2018-May-07 14:00N 38°58' W 090°40'0 0.0
2018-May-07 13:20N 38°58' W 090°40'0 0.0
2018-May-07 12:41N 38°58' W 090°40'0 0.2
2018-May-07 12:30N 38°58' W 090°40'2 4.1
2018-May-07 12:00N 38°56' W 090°40'2 4.6
2018-May-07 11:30N 38°54' W 090°38'2 4.5
2018-May-07 11:00N 38°52' W 090°36'2 4.8
2018-May-07 10:30N 38°52' W 090°33'2 4.5
2018-May-07 10:00N 38°54' W 090°31'2 4.5
2018-May-07 09:30N 38°56' W 090°30'2 3.6
2018-May-07 09:00N 38°57' W 090°28'0 0.2
2018-May-07 08:30N 38°57' W 090°28'0 0.0
2018-May-07 08:00N 38°57' W 090°28'0 0.0
2018-May-07 07:30N 38°57' W 090°28'0 0.0
2018-May-07 07:00N 38°57' W 090°28'1 1.3
2018-May-07 06:30N 38°57' W 090°27'2 5.0
2018-May-07 06:00N 38°58' W 090°24'1 2.2
2018-May-07 05:30N 38°57' W 090°23'1 1.9
2018-May-07 05:00N 38°57' W 090°22'1 2.9
2018-May-07 04:30N 38°56' W 090°20'2 4.8
2018-May-07 04:00N 38°55' W 090°17'2 5.0
2018-May-07 03:30N 38°55' W 090°14'2 4.4
2018-May-07 03:00N 38°54' W 090°12'2 4.4
2018-May-07 02:30N 38°52' W 090°09'1 1.1
2018-May-07 02:00N 38°52' W 090°09'1 3.0
2018-May-07 01:30N 38°51' W 090°07'2 2.9
2018-May-07 00:59N 38°50' W 090°07'2 4.1
2018-May-07 00:30N 38°48' W 090°07'2 4.9
2018-May-07 00:00N 38°46' W 090°08'2 4.8
2018-May-06 23:30N 38°44' W 090°10'2 3.5
2018-May-06 23:00N 38°42' W 090°11'1 0.7
2018-May-06 21:54N 38°41' W 090°11'1 3.0
2018-May-06 21:30N 38°40' W 090°11'8 1.2
2018-May-06 14:27N 38°32' W 090°15'0 0.1
2018-May-06 12:30N 38°32' W 090°15'4 6.2
2018-May-06 11:48N 38°36' W 090°12'3 9.7
2018-May-06 11:30N 38°39' W 090°11'3 6.5
2018-May-06 11:00N 38°42' W 090°11'1 1.1
2018-May-06 10:29N 38°42' W 090°11'1 1.7
2018-May-06 09:57N 38°43' W 090°10'1 2.0
2018-May-06 09:29N 38°44' W 090°10'1 1.6
2018-May-06 09:00N 38°45' W 090°09'0 0.3
2018-May-06 08:29N 38°45' W 090°09'0 0.4
2018-May-06 07:45N 38°45' W 090°09'1 2.2
2018-May-06 07:23N 38°46' W 090°08'2 4.2
2018-May-06 06:58N 38°47' W 090°07'3 6.8
2018-May-06 06:30N 38°50' W 090°06'3 5.5
2018-May-06 06:00N 38°52' W 090°09'0 0.8
2018-May-06 05:30N 38°52' W 090°10'3 6.1
2018-May-06 05:00N 38°54' W 090°13'1 3.0
2018-May-06 04:30N 38°55' W 090°14'0 0.0
2018-May-06 04:00N 38°55' W 090°14'0 0.0
2018-May-06 03:30N 38°55' W 090°14'0 0.0
2018-May-06 03:00N 38°55' W 090°14'0 0.0
2018-May-06 02:30N 38°55' W 090°14'0 0.0
2018-May-06 02:00N 38°55' W 090°14'0 0.0
2018-May-06 01:29N 38°55' W 090°14'1 2.6
2018-May-06 01:00N 38°55' W 090°16'4 7.1
2018-May-06 00:30N 38°56' W 090°20'4 7.3
2018-May-06 00:00N 38°58' W 090°24'3 6.9
2018-May-05 23:30N 38°57' W 090°29'4 7.1
2018-May-05 23:00N 38°54' W 090°31'3 6.9
2018-May-05 22:30N 38°52' W 090°35'3 6.5
2018-May-05 22:00N 38°54' W 090°38'4 7.2
2018-May-05 21:30N 38°57' W 090°40'3 5.7
2018-May-05 21:00N 39°00' W 090°41'0 0.2
2018-May-05 20:30N 39°00' W 090°41'0 0.2
2018-May-05 20:00N 39°00' W 090°41'0 0.4
2018-May-05 19:30N 39°00' W 090°42'2 3.1
2018-May-05 19:00N 39°02' W 090°42'7 6.3
2018-May-05 17:53N 39°09' W 090°43'  
Track history (hours):
 
Tides and Currents Weather Stations Pressure Air Temp Water Temp Dewpoint Dewpoint Depression Visibility Wind Speed Wind Dir Waves Ship Positions

Philip M Pfeffer (pmp)

Owner: Ingram Barge Company LLC, Nashville, TN. More information available from US FCC via Universal Licensing System and Coast Guard Vessel Documentation Center.

Last reported at 2018-May-07 21:25 UTC. Time now 2018-Jun-22 15:04 UTC.
Position N 39°09' W 090°43'.
Warning: this ship's position is 45 days out of date.

Length 39 m; draft 2.7 m.

Type: Ship (hazmat cat B). MMSI: 366963070.

Date/timePositionNaut miles runAvg speedWind from/ knotsBaromVisibWave heightAir tempDewpointWater temp
2018-May-07 21:25N 39°09' W 090°43'2 5.1
2018-May-07 20:56N 39°07' W 090°41'3 4.2
2018-May-07 20:16N 39°04' W 090°42'1 5.2
2018-May-07 20:00N 39°03' W 090°43'3 5.2
2018-May-07 19:30N 39°00' W 090°41'0 0.5
2018-May-07 18:58N 39°00' W 090°41'0 0.0
2018-May-07 18:25N 39°00' W 090°41'1 2.0
2018-May-07 17:59N 38°59' W 090°41'2 0.8
2018-May-07 15:49N 38°58' W 090°40'0 0.0
2018-May-07 15:27N 38°58' W 090°40'0 0.0
2018-May-07 15:00N 38°58' W 090°40'0 0.0
2018-May-07 14:30N 38°58' W 090°40'0 0.0
2018-May-07 14:00N 38°58' W 090°40'0 0.0
2018-May-07 13:20N 38°58' W 090°40'0 0.0
2018-May-07 12:41N 38°58' W 090°40'0 0.2
2018-May-07 12:30N 38°58' W 090°40'2 4.1
2018-May-07 12:00N 38°56' W 090°40'2 4.6
2018-May-07 11:30N 38°54' W 090°38'2 4.5
2018-May-07 11:00N 38°52' W 090°36'2 4.8
2018-May-07 10:30N 38°52' W 090°33'2 4.5
2018-May-07 10:00N 38°54' W 090°31'2 4.5
2018-May-07 09:30N 38°56' W 090°30'2 3.6
2018-May-07 09:00N 38°57' W 090°28'0 0.2
2018-May-07 08:30N 38°57' W 090°28'0 0.0
2018-May-07 08:00N 38°57' W 090°28'0 0.0
2018-May-07 07:30N 38°57' W 090°28'0 0.0
2018-May-07 07:00N 38°57' W 090°28'1 1.3
2018-May-07 06:30N 38°57' W 090°27'2 5.0
2018-May-07 06:00N 38°58' W 090°24'1 2.2
2018-May-07 05:30N 38°57' W 090°23'1 1.9
2018-May-07 05:00N 38°57' W 090°22'1 2.9
2018-May-07 04:30N 38°56' W 090°20'2 4.8
2018-May-07 04:00N 38°55' W 090°17'2 5.0
2018-May-07 03:30N 38°55' W 090°14'2 4.4
2018-May-07 03:00N 38°54' W 090°12'2 4.4
2018-May-07 02:30N 38°52' W 090°09'1 1.1
2018-May-07 02:00N 38°52' W 090°09'1 3.0
2018-May-07 01:30N 38°51' W 090°07'2 2.9
2018-May-07 00:59N 38°50' W 090°07'2 4.1
2018-May-07 00:30N 38°48' W 090°07'2 4.9
2018-May-07 00:00N 38°46' W 090°08'2 4.8
2018-May-06 23:30N 38°44' W 090°10'2 3.5
2018-May-06 23:00N 38°42' W 090°11'1 0.7
2018-May-06 21:54N 38°41' W 090°11'1 3.0
2018-May-06 21:30N 38°40' W 090°11'8 1.2
2018-May-06 14:27N 38°32' W 090°15'0 0.1
2018-May-06 12:30N 38°32' W 090°15'4 6.2
2018-May-06 11:48N 38°36' W 090°12'3 9.7
2018-May-06 11:30N 38°39' W 090°11'3 6.5
2018-May-06 11:00N 38°42' W 090°11'1 1.1
2018-May-06 10:29N 38°42' W 090°11'1 1.7
2018-May-06 09:57N 38°43' W 090°10'1 2.0
2018-May-06 09:29N 38°44' W 090°10'1 1.6
2018-May-06 09:00N 38°45' W 090°09'0 0.3
2018-May-06 08:29N 38°45' W 090°09'0 0.4
2018-May-06 07:45N 38°45' W 090°09'1 2.2
2018-May-06 07:23N 38°46' W 090°08'2 4.2
2018-May-06 06:58N 38°47' W 090°07'3 6.8
2018-May-06 06:30N 38°50' W 090°06'3 5.5
2018-May-06 06:00N 38°52' W 090°09'0 0.8
2018-May-06 05:30N 38°52' W 090°10'3 6.1
2018-May-06 05:00N 38°54' W 090°13'1 3.0
2018-May-06 04:30N 38°55' W 090°14'0 0.0
2018-May-06 04:00N 38°55' W 090°14'0 0.0
2018-May-06 03:30N 38°55' W 090°14'0 0.0
2018-May-06 03:00N 38°55' W 090°14'0 0.0
2018-May-06 02:30N 38°55' W 090°14'0 0.0
2018-May-06 02:00N 38°55' W 090°14'0 0.0
2018-May-06 01:29N 38°55' W 090°14'1 2.6
2018-May-06 01:00N 38°55' W 090°16'4 7.1
2018-May-06 00:30N 38°56' W 090°20'4 7.3
2018-May-06 00:00N 38°58' W 090°24'3 6.9
2018-May-05 23:30N 38°57' W 090°29'4 7.1
2018-May-05 23:00N 38°54' W 090°31'3 6.9
2018-May-05 22:30N 38°52' W 090°35'3 6.5
2018-May-05 22:00N 38°54' W 090°38'4 7.2
2018-May-05 21:30N 38°57' W 090°40'3 5.7
2018-May-05 21:00N 39°00' W 090°41'0 0.2
2018-May-05 20:30N 39°00' W 090°41'0 0.2
2018-May-05 20:00N 39°00' W 090°41'0 0.4
2018-May-05 19:30N 39°00' W 090°42'2 3.1
2018-May-05 19:00N 39°02' W 090°42'7 6.3
2018-May-05 17:53N 39°09' W 090°43'  

Dump ship's entire track history